Date,TemperatureHighF,TemperatureAvgF,TemperatureLowF,DewpointHighF,DewpointAvgF,DewpointLowF,HumidityHigh,HumidityAvg,HumidityLow,PressureMaxIn,PressureMinIn,WindSpeedMaxMPH,WindSpeedAvgMPH,GustSpeedMaxMPH,PrecipitationSumIn
2013-3-1,41.9,38.6,36.4,35.5,33.3,30.9,91,81,71,29.62,29.47,13,3,15,0.00
2013-3-2,43.8,38.7,32.9,34.6,30.9,28.1,83,73,65,29.61,29.56,9,3,14,0.00
2013-3-3,42.4,37.3,33.0,35.2,31.5,28.4,87,79,73,29.58,29.50,18,4,19,0.00
2013-3-4,40.3,35.8,32.2,30.4,27.3,25.1,89,71,59,29.60,29.50,22,8,28,0.00
2013-3-5,43.8,39.5,32.8,36.6,32.7,25.3,90,77,65,30.01,29.77,16,3,19,0.00
2013-3-6,41.3,38.9,36.7,37.3,34.8,31.0,93,85,73,30.07,29.99,22,9,30,0.12
2013-3-7,38.1,34.3,32.2,33.6,32.2,31.0,96,92,76,30.03,29.92,27,6,32,0.17
2013-3-8,43.7,34.8,30.8,41.1,30.6,27.4,100,87,56,30.08,29.87,16,3,26,0.16
2013-3-9,42.4,37.6,31.7,34.5,30.0,25.6,92,74,59,30.30,30.08,16,4,21,0.00
2013-3-10,41.6,36.0,29.4,35.6,32.2,27.6,94,86,76,30.36,30.26,11,3,13,0.01
2013-3-11,51.0,43.0,37.1,43.1,38.3,33.9,93,84,71,30.28,30.10,11,3,14,0.00
2013-3-12,53.2,46.8,42.6,52.7,45.5,40.9,98,95,91,30.11,29.67,11,3,18,0.21
2013-3-13,53.2,46.9,38.9,52.5,35.9,24.6,98,68,41,29.72,29.63,17,5,22,0.00
2013-3-14,38.9,33.9,24.5,27.2,19.8,10.0,72,56,46,29.76,29.63,23,7,30,0.00
2013-3-15,42.2,30.9,20.9,30.1,15.4,7.5,76,53,32,29.80,29.56,26,7,33,0.00
2013-3-16,40.4,34.9,29.9,29.5,19.2,12.9,75,54,35,29.82,29.59,13,4,23,0.00
2013-3-17,37.8,32.3,26.7,18.3,13.5,7.5,66,46,33,30.27,29.82,16,4,30,0.00
2013-3-18,34.9,28.9,20.3,28.8,15.2,4.4,90,57,42,30.41,30.21,13,3,16,0.00
2013-3-19,36.8,33.5,28.1,36.2,32.6,26.6,98,96,91,30.21,29.53,26,8,27,0.68
2013-3-20,39.5,32.4,26.8,26.6,24.6,22.9,94,74,53,29.72,29.62,23,6,34,0.06
2013-3-21,35.4,32.9,29.9,30.9,26.1,21.7,94,77,59,29.74,29.55,7,2,11,0.00
2013-3-22,41.9,35.4,31.1,29.6,24.2,20.8,92,65,45,29.67,29.54,18,4,25,0.02
2013-3-23,45.0,37.1,29.8,26.0,23.5,21.8,76,59,43,29.70,29.55,27,8,35,0.00
2013-3-24,47.7,39.4,33.3,34.6,28.7,23.9,82,66,46,29.75,29.67,17,4,25,0.00
2013-3-25,43.9,38.9,33.7,37.5,33.4,27.8,85,80,73,29.72,29.48,13,4,20,0.00
2013-3-26,51.8,42.3,34.4,34.7,28.9,25.4,93,61,38,29.71,29.48,11,3,19,0.03
2013-3-27,55.9,44.5,34.4,37.6,29.5,25.3,83,57,38,29.80,29.67,18,4,25,0.00
2013-3-28,48.4,43.7,38.6,37.4,35.9,30.8,92,75,51,29.95,29.80,9,3,16,0.02
2013-3-29,58.0,46.8,38.6,41.3,36.6,32.9,80,68,43,29.98,29.90,18,3,22,0.04
2013-3-30,53.1,45.9,39.1,39.6,35.1,29.6,80,66,42,30.04,29.95,13,2,14,0.00
2013-3-31,58.3,44.7,33.5,41.4,35.2,28.8,85,71,40,30.06,29.72,19,3,30,0.01